Time;durP1;ratioP1;P1;durP2;ratioP2;P2;SDS_P1;SDS_P2;PMS_P1;PMS_P2;Temp;Humidity;BMP_temperature;BMP_pressure;BME280_temperature;BME280_humidity;BME280_pressure;Samples;Min_cycle;Max_cycle;Signal;HPM_P1;HPM_P2
2023/05/09 00:02:33;;;;;;;5.43;3.20;;;;;;;;;;4998751;28;20045;-59
2023/05/09 00:05:01;;;;;;;7.22;3.90;;;;;;;;;;4997738;28;20052;-52
2023/05/09 00:07:35;;;;;;;8.18;3.97;;;;;;;;;;4994919;28;20050;-50
2023/05/09 00:10:02;;;;;;;11.88;4.22;;;;;;;;;;4995595;28;20057;-54
2023/05/09 00:12:29;;;;;;;;;;;;;;;;;;4997355;28;20061;-54
2023/05/09 00:15:07;;;;;;;5.75;3.47;;;;;;;;;;4995396;28;20044;-52
2023/05/09 00:17:35;;;;;;;6.55;3.63;;;;;;;;;;4997363;28;20053;-48
2023/05/09 00:20:04;;;;;;;10.05;3.67;;;;;;;;;;4993161;28;20061;-54
2023/05/09 00:22:39;;;;;;;8.18;4.03;;;;;;;;;;4991263;28;20120;-54
2023/05/09 00:25:07;;;;;;;15.10;4.15;;;;;;;;;;4994751;28;20066;-50
2023/05/09 00:27:42;;;;;;;8.40;3.78;;;;;;;;;;4994386;28;20081;-52
2023/05/09 00:30:09;;;;;;;11.93;3.90;;;;;;;;;;4996178;28;20513;-53
2023/05/09 00:32:38;;;;;;;6.57;3.75;;;;;;;;;;4997575;28;20060;-50
2023/05/09 00:35:13;;;;;;;5.40;3.83;;;;;;;;;;4994757;28;20046;-55
2023/05/09 00:37:41;;;;;;;10.63;4.43;;;;;;;;;;4993419;28;20145;-54
2023/05/09 00:40:15;;;;;;;8.43;3.75;;;;;;;;;;4996381;28;20469;-54
2023/05/09 00:42:42;;;;;;;6.90;3.63;;;;;;;;;;4995451;28;20057;-49
2023/05/09 00:45:09;;;;;;;8.65;3.55;;;;;;;;;;4978506;28;20155;-66
2023/05/09 00:47:44;;;;;;;8.48;3.83;;;;;;;;;;4998048;28;20060;-58
2023/05/09 00:50:11;;;;;;;10.00;4.13;;;;;;;;;;4997390;28;20065;-60
2023/05/09 00:52:38;;;;;;;7.13;3.53;;;;;;;;;;4992734;28;20450;-57
2023/05/09 00:55:12;;;;;;;7.53;3.55;;;;;;;;;;4980414;28;20060;-59
2023/05/09 00:57:40;;;;;;;6.68;3.17;;;;;;;;;;4993038;28;20049;-62
2023/05/09 01:00:20;;;;;;;9.85;3.83;;;;;;;;;;4995048;28;20562;-61
2023/05/09 01:02:51;;;;;;;16.77;4.28;;;;;;;;;;4997627;28;20148;-51
2023/05/09 01:05:29;;;;;;;16.17;3.88;;;;;;;;;;4994476;28;20055;-60
2023/05/09 01:08:00;;;;;;;7.07;3.63;;;;;;;;;;4992293;28;20081;-62
2023/05/09 01:10:47;;;;;;;8.02;4.13;;;;;;;;;;4995233;28;20355;-63
2023/05/09 01:13:35;;;;;;;10.30;4.13;;;;;;;;;;4994816;28;20069;-62
2023/05/09 01:16:14;;;;;;;6.47;3.70;;;;;;;;;;4995786;28;20494;-62
2023/05/09 01:19:02;;;;;;;9.15;3.30;;;;;;;;;;4997171;28;20058;-62
2023/05/09 01:21:32;;;;;;;10.13;3.65;;;;;;;;;;4993959;28;20050;-62
2023/05/09 01:24:06;;;;;;;7.07;3.58;;;;;;;;;;4996130;28;20053;-62
2023/05/09 01:26:58;;;;;;;5.82;4.00;;;;;;;;;;4991865;28;20129;-62
2023/05/09 01:29:37;;;;;;;11.60;4.05;;;;;;;;;;4996124;28;20054;-51
2023/05/09 01:32:09;;;;;;;8.55;4.00;;;;;;;;;;4994129;28;20056;-62
2023/05/09 01:34:43;;;;;;;5.97;3.55;;;;;;;;;;4992336;28;20041;-52
2023/05/09 01:37:13;;;;;;;5.55;3.95;;;;;;;;;;4996550;28;20140;-54
2023/05/09 01:39:48;;;;;;;5.72;3.88;;;;;;;;;;4993481;28;20037;-50
2023/05/09 01:42:17;;;;;;;8.27;3.88;;;;;;;;;;4992425;28;20053;-52
2023/05/09 01:44:45;;;;;;;12.57;4.00;;;;;;;;;;4995932;28;20055;-53
2023/05/09 01:47:19;;;;;;;4.63;3.60;;;;;;;;;;4990862;28;20046;-53
2023/05/09 01:49:46;;;;;;;;;;;;;;;;;;4994269;28;20052;-51
2023/05/09 01:52:15;;;;;;;7.75;3.97;;;;;;;;;;4995241;28;20024;-51
2023/05/09 01:54:50;;;;;;;8.10;3.60;;;;;;;;;;4993541;28;20042;-54
2023/05/09 01:57:18;;;;;;;6.05;3.67;;;;;;;;;;4994943;28;20038;-52
2023/05/09 02:00:06;;;;;;;8.32;4.05;;;;;;;;;;4997346;28;20081;-62
2023/05/09 02:02:41;;;;;;;7.07;3.45;;;;;;;;;;4999293;28;20454;-60
2023/05/09 02:05:16;;;;;;;6.07;3.67;;;;;;;;;;4996322;28;20787;-62
2023/05/09 02:07:50;;;;;;;9.32;3.75;;;;;;;;;;5000431;28;20141;-61
2023/05/09 02:10:19;;;;;;;8.20;3.80;;;;;;;;;;4995119;28;20054;-62
2023/05/09 02:12:46;;;;;;;12.27;3.95;;;;;;;;;;4996316;28;20499;-62
2023/05/09 02:15:20;;;;;;;8.45;3.70;;;;;;;;;;5000718;28;20117;-62
2023/05/09 02:17:47;;;;;;;4.38;3.40;;;;;;;;;;5001890;28;20071;-53
2023/05/09 02:20:21;;;;;;;16.42;4.13;;;;;;;;;;4996500;28;20078;-50
2023/05/09 02:22:48;;;;;;;7.30;3.75;;;;;;;;;;4998672;28;20053;-50
2023/05/09 02:25:15;;;;;;;5.13;3.67;;;;;;;;;;4999057;28;20046;-53
2023/05/09 02:27:51;;;;;;;5.30;3.53;;;;;;;;;;4998013;28;20060;-50
2023/05/09 02:30:23;;;;;;;7.65;3.55;;;;;;;;;;5003103;28;20826;-50
2023/05/09 02:33:01;;;;;;;8.20;3.50;;;;;;;;;;4970614;28;20120;-50
2023/05/09 02:35:36;;;;;;;10.25;3.72;;;;;;;;;;4981765;28;20530;-50
2023/05/09 02:38:03;;;;;;;9.98;3.85;;;;;;;;;;4998578;28;20050;-50
2023/05/09 02:40:37;;;;;;;6.18;3.50;;;;;;;;;;4997715;28;20054;-50
2023/05/09 02:43:06;;;;;;;9.10;3.42;;;;;;;;;;4966074;28;20113;-50
2023/05/09 02:45:34;;;;;;;7.43;4.03;;;;;;;;;;4986059;28;20549;-66
2023/05/09 02:48:08;;;;;;;6.95;3.97;;;;;;;;;;5002681;28;20057;-66
2023/05/09 02:50:41;;;;;;;7.25;3.83;;;;;;;;;;4996582;28;20068;-63
2023/05/09 02:53:15;;;;;;;5.18;3.20;;;;;;;;;;4987022;28;20591;-66
2023/05/09 02:55:42;;;;;;;5.15;3.75;;;;;;;;;;4997777;28;20094;-60
2023/05/09 02:58:09;;;;;;;8.25;3.72;;;;;;;;;;4998492;28;20077;-66
2023/05/09 03:00:50;;;;;;;8.85;3.33;;;;;;;;;;4996146;28;20054;-50
2023/05/09 03:03:17;;;;;;;5.85;3.63;;;;;;;;;;4996648;28;20527;-51
2023/05/09 03:05:51;;;;;;;6.38;3.72;;;;;;;;;;4987075;28;20818;-52
2023/05/09 03:08:18;;;;;;;6.38;3.65;;;;;;;;;;4996840;28;20136;-53
2023/05/09 03:10:52;;;;;;;5.80;3.63;;;;;;;;;;4994856;28;20062;-54
2023/05/09 03:13:25;;;;;;;6.22;3.70;;;;;;;;;;4999732;28;20054;-65
2023/05/09 03:15:59;;;;;;;8.98;4.00;;;;;;;;;;4995166;28;20424;-65
2023/05/09 03:18:26;;;;;;;;;;;;;;;;;;5000818;28;20069;-65
2023/05/09 03:20:53;;;;;;;7.00;3.38;;;;;;;;;;4998564;28;19939;-65
2023/05/09 03:23:27;;;;;;;8.85;3.58;;;;;;;;;;4997025;28;20141;-53
2023/05/09 03:25:54;;;;;;;6.57;3.85;;;;;;;;;;4995816;28;20053;-71
2023/05/09 03:28:28;;;;;;;9.13;3.70;;;;;;;;;;4996720;28;20141;-65
2023/05/09 03:30:55;;;;;;;11.27;3.67;;;;;;;;;;4997898;28;20060;-64
2023/05/09 03:33:22;;;;;;;7.28;3.58;;;;;;;;;;4998830;28;20057;-65
2023/05/09 03:35:57;;;;;;;13.77;4.30;;;;;;;;;;4997286;28;20061;-65
2023/05/09 03:38:24;;;;;;;6.85;3.60;;;;;;;;;;4994483;28;20068;-66
2023/05/09 03:40:59;;;;;;;5.57;3.28;;;;;;;;;;4997089;28;20060;-65
2023/05/09 03:43:33;;;;;;;7.40;4.05;;;;;;;;;;4992163;28;20681;-70
2023/05/09 03:46:07;;;;;;;6.55;3.70;;;;;;;;;;4994056;28;20061;-70
2023/05/09 03:48:41;;;;;;;8.80;3.72;;;;;;;;;;4996117;28;20536;-70
2023/05/09 03:51:15;;;;;;;6.18;3.47;;;;;;;;;;4997805;28;20134;-70
2023/05/09 03:53:43;;;;;;;8.98;3.40;;;;;;;;;;4997378;28;20519;-62
2023/05/09 03:56:10;;;;;;;6.70;3.47;;;;;;;;;;4997439;28;20041;-51
2023/05/09 03:58:44;;;;;;;8.20;3.53;;;;;;;;;;4989625;28;20050;-50
2023/05/09 04:01:17;;;;;;;14.13;3.90;;;;;;;;;;4986415;28;20065;-52
2023/05/09 04:03:58;;;;;;;7.40;3.53;;;;;;;;;;4988250;28;20454;-48
2023/05/09 04:06:26;;;;;;;10.18;3.40;;;;;;;;;;4974123;28;20076;-49
2023/05/09 04:09:00;;;;;;;6.35;3.25;;;;;;;;;;4986063;28;20184;-55
2023/05/09 04:11:27;;;;;;;6.00;3.20;;;;;;;;;;4972355;28;20077;-71
2023/05/09 04:13:54;;;;;;;4.93;3.60;;;;;;;;;;4990873;28;20423;-70
2023/05/09 04:16:28;;;;;;;7.35;3.60;;;;;;;;;;4994467;28;20153;-70
2023/05/09 04:18:55;;;;;;;8.55;3.47;;;;;;;;;;4991778;28;20053;-71
2023/05/09 04:21:30;;;;;;;7.07;3.63;;;;;;;;;;4998779;28;20053;-61
2023/05/09 04:23:57;;;;;;;11.00;3.10;;;;;;;;;;4996861;28;20058;-62
2023/05/09 04:26:25;;;;;;;5.18;3.55;;;;;;;;;;4991205;28;20053;-62
2023/05/09 04:28:59;;;;;;;7.65;3.50;;;;;;;;;;4993579;28;20598;-62
2023/05/09 04:31:26;;;;;;;12.18;4.15;;;;;;;;;;4995231;28;20050;-62
2023/05/09 04:34:00;;;;;;;9.18;3.70;;;;;;;;;;4987143;28;20149;-62
2023/05/09 04:36:27;;;;;;;4.82;3.30;;;;;;;;;;4994398;28;20048;-62
2023/05/09 04:38:55;;;;;;;7.38;3.88;;;;;;;;;;4996228;28;20157;-53
2023/05/09 04:41:29;;;;;;;6.25;3.35;;;;;;;;;;4996684;28;20137;-53
2023/05/09 04:43:56;;;;;;;6.60;3.83;;;;;;;;;;4995282;28;20822;-53
2023/05/09 04:46:31;;;;;;;6.07;3.63;;;;;;;;;;4994363;28;20050;-51
2023/05/09 04:48:58;;;;;;;6.13;3.03;;;;;;;;;;4991367;28;20105;-51
2023/05/09 04:51:25;;;;;;;6.32;3.03;;;;;;;;;;4998318;28;20133;-50
2023/05/09 04:54:00;;;;;;;6.20;3.40;;;;;;;;;;4991746;28;20140;-59
2023/05/09 04:56:27;;;;;;;8.80;3.63;;;;;;;;;;4994624;28;20064;-51
2023/05/09 04:59:01;;;;;;;6.85;3.40;;;;;;;;;;4996803;28;20592;-51
2023/05/09 05:01:34;;;;;;;6.65;3.30;;;;;;;;;;4994790;28;20064;-49
2023/05/09 05:04:09;;;;;;;4.55;3.70;;;;;;;;;;4979332;28;20062;-53
2023/05/09 05:06:36;;;;;;;6.38;3.33;;;;;;;;;;4996228;28;20058;-53
2023/05/09 05:09:03;;;;;;;5.88;3.05;;;;;;;;;;4998065;28;20129;-71
2023/05/09 05:11:38;;;;;;;5.10;3.47;;;;;;;;;;4997764;28;20137;-70
2023/05/09 05:14:09;;;;;;;7.72;3.65;;;;;;;;;;4996214;28;20050;-70
2023/05/09 05:16:43;;;;;;;7.65;3.33;;;;;;;;;;4998358;28;20056;-70
2023/05/09 05:19:10;;;;;;;6.07;3.85;;;;;;;;;;4995271;28;20647;-65
2023/05/09 05:21:37;;;;;;;7.78;3.00;;;;;;;;;;4999233;28;20146;-54
2023/05/09 05:24:13;;;;;;;7.20;3.55;;;;;;;;;;4994907;28;20056;-50
2023/05/09 05:26:42;;;;;;;5.55;3.35;;;;;;;;;;4997385;28;20080;-53
2023/05/09 05:29:17;;;;;;;7.70;3.75;;;;;;;;;;4995593;28;20058;-54
2023/05/09 05:31:44;;;;;;;7.13;3.20;;;;;;;;;;4996563;28;20524;-56
2023/05/09 05:34:12;;;;;;;5.55;3.85;;;;;;;;;;4996665;28;20046;-56
2023/05/09 05:36:46;;;;;;;12.52;3.75;;;;;;;;;;4985096;28;20141;-54
2023/05/09 05:39:13;;;;;;;;;;;;;;;;;;4991626;28;20449;-56
2023/05/09 05:41:47;;;;;;;10.18;3.83;;;;;;;;;;4998402;28;19925;-56
2023/05/09 05:44:14;;;;;;;12.73;4.22;;;;;;;;;;4995352;28;20049;-54
2023/05/09 05:46:41;;;;;;;13.73;3.95;;;;;;;;;;4995554;28;20055;-53
2023/05/09 05:49:15;;;;;;;6.82;3.05;;;;;;;;;;4994742;28;20165;-57
2023/05/09 05:51:42;;;;;;;6.32;3.42;;;;;;;;;;4998942;28;20486;-54
2023/05/09 05:54:09;;;;;;;6.45;3.38;;;;;;;;;;4996778;28;20101;-57
2023/05/09 05:56:44;;;;;;;6.05;3.35;;;;;;;;;;4995009;28;20120;-56
2023/05/09 05:59:11;;;;;;;5.90;4.00;;;;;;;;;;4996863;28;20060;-56
2023/05/09 06:01:51;;;;;;;5.65;3.10;;;;;;;;;;4997540;28;20609;-55
2023/05/09 06:04:19;;;;;;;9.30;3.80;;;;;;;;;;4998421;28;22407;-54
2023/05/09 06:06:53;;;;;;;4.20;3.03;;;;;;;;;;4983330;28;20089;-56
2023/05/09 06:09:20;;;;;;;5.10;3.42;;;;;;;;;;4998710;28;20058;-55
2023/05/09 06:11:47;;;;;;;6.38;3.70;;;;;;;;;;4982573;28;20548;-55
2023/05/09 06:14:21;;;;;;;5.95;3.75;;;;;;;;;;4996695;28;20051;-55
2023/05/09 06:16:55;;;;;;;5.32;3.40;;;;;;;;;;4992905;28;20069;-56
2023/05/09 06:19:29;;;;;;;7.10;3.50;;;;;;;;;;4998217;28;20069;-66
2023/05/09 06:21:56;;;;;;;7.63;3.78;;;;;;;;;;4998732;28;20050;-65
2023/05/09 06:24:23;;;;;;;6.82;3.00;;;;;;;;;;4993708;28;20050;-66
2023/05/09 06:27:02;;;;;;;6.63;3.33;;;;;;;;;;4995403;28;20072;-65
2023/05/09 06:29:29;;;;;;;7.68;3.53;;;;;;;;;;4996316;28;20072;-65
2023/05/09 06:32:03;;;;;;;4.43;3.13;;;;;;;;;;4997838;28;20046;-65
2023/05/09 06:34:30;;;;;;;;;;;;;;;;;;4998513;28;20055;-68
2023/05/09 06:37:04;;;;;;;5.90;3.50;;;;;;;;;;4993781;28;19941;-68
2023/05/09 06:39:31;;;;;;;;;;;;;;;;;;4998941;28;20657;-68
2023/05/09 06:41:58;;;;;;;11.60;3.33;;;;;;;;;;4993120;28;19931;-68
2023/05/09 06:44:32;;;;;;;7.38;3.40;;;;;;;;;;4997998;28;20060;-51
2023/05/09 06:47:00;;;;;;;6.15;3.38;;;;;;;;;;4986306;28;20445;-68
2023/05/09 06:49:27;;;;;;;7.30;3.30;;;;;;;;;;5000931;28;20153;-68
2023/05/09 06:52:01;;;;;;;4.70;3.15;;;;;;;;;;5000434;28;20132;-68
2023/05/09 06:54:28;;;;;;;7.20;3.28;;;;;;;;;;4981537;28;20072;-69
2023/05/09 06:57:02;;;;;;;6.38;3.63;;;;;;;;;;4996760;28;20057;-68
2023/05/09 06:59:29;;;;;;;8.10;3.30;;;;;;;;;;4994985;28;20056;-68
2023/05/09 07:01:56;;;;;;;8.73;3.80;;;;;;;;;;5000660;28;20058;-50
2023/05/09 07:04:30;;;;;;;10.15;3.70;;;;;;;;;;4999616;28;20062;-48
2023/05/09 07:06:59;;;;;;;;;;;;;;;;;;5001256;28;20057;-53
2023/05/09 07:09:33;;;;;;;6.30;3.53;;;;;;;;;;4995378;28;19929;-52
2023/05/09 07:12:00;;;;;;;8.88;3.33;;;;;;;;;;5000180;28;20050;-67
2023/05/09 07:14:27;;;;;;;4.75;3.47;;;;;;;;;;4998691;28;20077;-53
2023/05/09 07:17:01;;;;;;;7.03;3.38;;;;;;;;;;4998206;28;20094;-55
2023/05/09 07:19:47;;;;;;;6.68;3.50;;;;;;;;;;4997572;28;20058;-51
2023/05/09 07:22:21;;;;;;;7.80;3.22;;;;;;;;;;4998570;28;20064;-52
2023/05/09 07:24:49;;;;;;;4.82;3.15;;;;;;;;;;5000107;28;20061;-53
2023/05/09 07:27:16;;;;;;;5.22;3.28;;;;;;;;;;4997452;28;20046;-55
2023/05/09 07:29:51;;;;;;;5.88;3.60;;;;;;;;;;4997585;28;20479;-60
2023/05/09 07:32:18;;;;;;;8.88;3.33;;;;;;;;;;4996073;28;20510;-59
2023/05/09 07:34:52;;;;;;;6.07;3.70;;;;;;;;;;4996221;28;20062;-60
2023/05/09 07:37:19;;;;;;;7.18;3.50;;;;;;;;;;4996377;28;20137;-61
2023/05/09 07:39:47;;;;;;;4.80;3.30;;;;;;;;;;4998636;28;20054;-50
2023/05/09 07:42:21;;;;;;;8.07;3.60;;;;;;;;;;4985851;28;20735;-56
2023/05/09 07:44:48;;;;;;;9.65;3.25;;;;;;;;;;4998088;28;20061;-61
2023/05/09 07:47:22;;;;;;;9.27;3.75;;;;;;;;;;4997613;28;20060;-60
2023/05/09 07:49:49;;;;;;;8.65;3.70;;;;;;;;;;4996050;28;20057;-61
2023/05/09 07:52:23;;;;;;;8.15;3.40;;;;;;;;;;4998925;28;20121;-59
2023/05/09 07:54:50;;;;;;;8.43;3.60;;;;;;;;;;5001044;28;20053;-61
2023/05/09 07:57:17;;;;;;;7.32;3.45;;;;;;;;;;4996317;28;20073;-60
2023/05/09 07:59:51;;;;;;;4.72;2.92;;;;;;;;;;4981615;28;20921;-69
2023/05/09 08:02:18;;;;;;;22.92;3.75;;;;;;;;;;4979684;28;20607;-69
2023/05/09 08:04:52;;;;;;;5.47;3.40;;;;;;;;;;4977844;28;20603;-70
2023/05/09 08:07:20;;;;;;;7.88;3.42;;;;;;;;;;4979419;28;20516;-69
2023/05/09 08:09:47;;;;;;;;;;;;;;;;;;4981369;28;20527;-49
2023/05/09 08:12:21;;;;;;;7.38;3.42;;;;;;;;;;4975685;28;20407;-64
2023/05/09 08:14:48;;;;;;;7.45;3.13;;;;;;;;;;4977520;28;20425;-64
2023/05/09 08:17:22;;;;;;;4.80;3.17;;;;;;;;;;4976944;28;20145;-64
2023/05/09 08:19:49;;;;;;;6.78;3.70;;;;;;;;;;4979387;28;20114;-64
2023/05/09 08:22:20;;;;;;;9.43;3.65;;;;;;;;;;4978483;28;20618;-64
2023/05/09 08:24:54;;;;;;;8.98;3.50;;;;;;;;;;4979252;28;20086;-64
2023/05/09 08:27:21;;;;;;;5.38;3.30;;;;;;;;;;4980635;28;20133;-51
2023/05/09 08:29:55;;;;;;;6.63;3.40;;;;;;;;;;4977004;28;20050;-50
2023/05/09 08:32:22;;;;;;;4.15;3.00;;;;;;;;;;4977113;28;20056;-51
2023/05/09 08:34:49;;;;;;;5.15;3.25;;;;;;;;;;4976176;28;20604;-51
2023/05/09 08:37:23;;;;;;;6.80;3.10;;;;;;;;;;4979086;28;21854;-69
2023/05/09 08:39:50;;;;;;;6.07;3.35;;;;;;;;;;4975504;28;20297;-53
2023/05/09 08:42:24;;;;;;;8.45;3.40;;;;;;;;;;4971622;28;20138;-51
2023/05/09 08:44:52;;;;;;;7.80;3.53;;;;;;;;;;4972824;28;20065;-51
2023/05/09 08:47:20;;;;;;;10.48;3.13;;;;;;;;;;4977373;28;20133;-50
2023/05/09 08:49:54;;;;;;;6.03;3.10;;;;;;;;;;4977154;28;20062;-49
2023/05/09 08:52:21;;;;;;;7.47;2.83;;;;;;;;;;4978224;28;20050;-50
2023/05/09 08:54:55;;;;;;;6.10;2.70;;;;;;;;;;4976809;28;20065;-49
2023/05/09 08:57:23;;;;;;;7.40;3.17;;;;;;;;;;4962037;28;20050;-48
2023/05/09 08:59:52;;;;;;;11.38;3.50;;;;;;;;;;4963297;28;20146;-49
2023/05/09 09:02:33;;;;;;;5.03;2.90;;;;;;;;;;4994076;28;20049;-48
2023/05/09 09:05:07;;;;;;;5.65;2.97;;;;;;;;;;4993286;28;20096;-63
2023/05/09 09:08:02;;;;;;;5.57;2.88;;;;;;;;;;4996472;28;20061;-51
2023/05/09 09:10:30;;;;;;;4.35;2.80;;;;;;;;;;4995197;28;20145;-64
2023/05/09 09:13:05;;;;;;;5.53;2.75;;;;;;;;;;4999893;28;20133;-64
2023/05/09 09:15:40;;;;;;;6.32;3.13;;;;;;;;;;4981464;28;20502;-64
2023/05/09 09:18:27;;;;;;;4.43;2.90;;;;;;;;;;4996346;28;20538;-64
2023/05/09 09:20:59;;;;;;;7.15;3.22;;;;;;;;;;4997159;28;20070;-64
2023/05/09 09:23:33;;;;;;;7.60;3.03;;;;;;;;;;4995387;28;20132;-60
2023/05/09 09:26:00;;;;;;;;;;;;;;;;;;4996134;28;22607;-58
2023/05/09 09:28:34;;;;;;;10.25;2.85;;;;;;;;;;4994959;28;19921;-59
2023/05/09 09:31:01;;;;;;;;;;;;;;;;;;4998100;28;20081;-60
2023/05/09 09:33:35;;;;;;;4.57;2.75;;;;;;;;;;4998338;28;19983;-57
2023/05/09 09:36:02;;;;;;;9.18;2.97;;;;;;;;;;4997995;28;20137;-52
2023/05/09 09:38:39;;;;;;;8.68;3.13;;;;;;;;;;4996533;28;20057;-58
2023/05/09 09:41:13;;;;;;;7.25;2.97;;;;;;;;;;4997219;28;20060;-57
2023/05/09 09:43:45;;;;;;;4.55;2.78;;;;;;;;;;4993723;28;20479;-58
2023/05/09 09:46:19;;;;;;;7.32;2.70;;;;;;;;;;4995348;28;20053;-59
2023/05/09 09:48:51;;;;;;;3.95;2.60;;;;;;;;;;4998029;28;20102;-58
2023/05/09 09:51:19;;;;;;;7.18;2.78;;;;;;;;;;4995965;28;20132;-59
2023/05/09 09:53:53;;;;;;;8.20;2.80;;;;;;;;;;4996705;28;20542;-70
2023/05/09 09:56:21;;;;;;;11.10;2.78;;;;;;;;;;4998117;28;20522;-70
2023/05/09 09:59:08;;;;;;;6.53;2.58;;;;;;;;;;4993008;28;20093;-70
2023/05/09 10:01:42;;;;;;;4.03;2.75;;;;;;;;;;4978632;28;20062;-69
2023/05/09 10:04:23;;;;;;;6.00;2.75;;;;;;;;;;5000978;28;20057;-57
2023/05/09 10:06:57;;;;;;;6.90;2.90;;;;;;;;;;4978442;28;20543;-64
2023/05/09 10:09:32;;;;;;;5.43;2.58;;;;;;;;;;4996928;28;20049;-64
2023/05/09 10:12:03;;;;;;;5.15;2.75;;;;;;;;;;4997592;28;20053;-64
2023/05/09 10:14:31;;;;;;;6.30;2.50;;;;;;;;;;4992786;28;20060;-64
2023/05/09 10:17:05;;;;;;;4.78;2.80;;;;;;;;;;4997118;28;20097;-64
2023/05/09 10:19:41;;;;;;;10.05;2.60;;;;;;;;;;4996796;28;20324;-64
2023/05/09 10:22:10;;;;;;;10.15;2.47;;;;;;;;;;5002661;28;20046;-64
2023/05/09 10:24:42;;;;;;;5.88;2.30;;;;;;;;;;5002566;28;20050;-64
2023/05/09 10:27:18;;;;;;;6.22;2.25;;;;;;;;;;5002121;28;20136;-63
2023/05/09 10:29:56;;;;;;;9.02;2.13;;;;;;;;;;5000978;28;20145;-64
2023/05/09 10:32:45;;;;;;;4.68;2.38;;;;;;;;;;4997448;28;20046;-57
2023/05/09 10:35:15;;;;;;;4.38;2.20;;;;;;;;;;4996660;28;20050;-64
2023/05/09 10:37:49;;;;;;;6.50;2.13;;;;;;;;;;4998704;28;20061;-64
2023/05/09 10:40:18;;;;;;;;;;;;;;;;;;5000937;28;20060;-64
2023/05/09 10:42:45;;;;;;;2.60;2.05;;;;;;;;;;5000391;28;19925;-64
2023/05/09 10:45:20;;;;;;;6.78;2.00;;;;;;;;;;4997804;28;20096;-64
2023/05/09 10:47:48;;;;;;;2.78;2.13;;;;;;;;;;4997006;28;20046;-64
2023/05/09 10:50:16;;;;;;;5.15;2.20;;;;;;;;;;4998277;28;20463;-68
2023/05/09 10:53:02;;;;;;;3.45;2.08;;;;;;;;;;5002160;28;20085;-70
2023/05/09 10:55:54;;;;;;;5.38;2.35;;;;;;;;;;5001532;28;20412;-70
2023/05/09 10:58:32;;;;;;;7.07;2.83;;;;;;;;;;4991662;28;20054;-70
2023/05/09 11:01:07;;;;;;;6.53;2.10;;;;;;;;;;4996297;28;20061;-56
2023/05/09 11:03:52;;;;;;;3.03;2.40;;;;;;;;;;4999335;28;20108;-65
2023/05/09 11:06:38;;;;;;;7.78;2.53;;;;;;;;;;4996391;28;20455;-64
2023/05/09 11:09:27;;;;;;;7.63;2.17;;;;;;;;;;4983322;28;20046;-64
2023/05/09 11:11:57;;;;;;;8.73;2.47;;;;;;;;;;4996798;28;20057;-65
2023/05/09 11:14:32;;;;;;;7.78;3.28;;;;;;;;;;4999084;28;20081;-64
2023/05/09 11:17:07;;;;;;;7.47;2.65;;;;;;;;;;4998506;28;20095;-55
2023/05/09 11:19:50;;;;;;;5.28;2.22;;;;;;;;;;4981794;28;20531;-50
2023/05/09 11:22:26;;;;;;;7.20;2.50;;;;;;;;;;4985301;28;20124;-51
2023/05/09 11:25:03;;;;;;;7.32;2.15;;;;;;;;;;4994733;28;20068;-50
2023/05/09 11:27:45;;;;;;;4.38;2.40;;;;;;;;;;4995489;28;20045;-60
2023/05/09 11:30:13;;;;;;;6.35;2.33;;;;;;;;;;4979736;28;20420;-53
2023/05/09 11:32:52;;;;;;;7.00;2.20;;;;;;;;;;4998499;28;20137;-71
2023/05/09 11:35:20;;;;;;;8.00;2.13;;;;;;;;;;4998803;28;20543;-70
2023/05/09 11:38:04;;;;;;;3.67;2.20;;;;;;;;;;4997386;28;20080;-71
2023/05/09 11:40:32;;;;;;;4.78;2.30;;;;;;;;;;4999058;28;20527;-71
2023/05/09 11:43:08;;;;;;;6.47;2.67;;;;;;;;;;4997335;28;21256;-71
2023/05/09 11:45:35;;;;;;;4.60;2.33;;;;;;;;;;4997896;28;20113;-51
2023/05/09 11:48:09;;;;;;;2.80;2.13;;;;;;;;;;4996349;28;20048;-51
2023/05/09 11:50:37;;;;;;;3.97;2.45;;;;;;;;;;4983876;28;20665;-53
2023/05/09 11:53:11;;;;;;;6.65;2.15;;;;;;;;;;4995181;28;20157;-56
2023/05/09 11:55:40;;;;;;;3.22;2.08;;;;;;;;;;4995017;28;20057;-55
2023/05/09 11:58:17;;;;;;;3.58;2.15;;;;;;;;;;4994369;28;20042;-58
2023/05/09 12:00:58;;;;;;;9.48;2.47;;;;;;;;;;4986115;28;20527;-53
2023/05/09 12:03:32;;;;;;;4.03;2.13;;;;;;;;;;4998453;28;20157;-57
2023/05/09 12:06:13;;;;;;;4.25;2.15;;;;;;;;;;4999469;28;20050;-58
2023/05/09 12:08:40;;;;;;;3.72;1.98;;;;;;;;;;4994326;28;20077;-58
2023/05/09 12:11:14;;;;;;;4.82;2.28;;;;;;;;;;4995621;28;20049;-57
2023/05/09 12:13:48;;;;;;;5.40;2.38;;;;;;;;;;5000316;28;20462;-58
2023/05/09 12:16:22;;;;;;;4.97;2.60;;;;;;;;;;4998308;28;20540;-63
2023/05/09 12:18:51;;;;;;;3.53;2.47;;;;;;;;;;4997264;28;20069;-63
2023/05/09 12:21:18;;;;;;;5.32;2.10;;;;;;;;;;4996112;28;20141;-63
2023/05/09 12:23:55;;;;;;;6.63;2.17;;;;;;;;;;4996794;28;20058;-62
2023/05/09 12:26:22;;;;;;;5.78;2.20;;;;;;;;;;4996577;28;20638;-60
2023/05/09 12:28:50;;;;;;;6.47;2.35;;;;;;;;;;4984662;28;20042;-70
2023/05/09 12:31:24;;;;;;;6.22;2.10;;;;;;;;;;4996415;28;20455;-70
2023/05/09 12:33:58;;;;;;;4.75;2.13;;;;;;;;;;4994466;28;20156;-70
2023/05/09 12:36:26;;;;;;;;;;;;;;;;;;4999391;28;20109;-70
2023/05/09 12:38:54;;;;;;;3.90;1.95;;;;;;;;;;4997152;28;19929;-70
2023/05/09 12:41:28;;;;;;;3.72;2.00;;;;;;;;;;4998500;28;20145;-71
2023/05/09 12:44:07;;;;;;;4.30;2.20;;;;;;;;;;4998830;28;20097;-51
2023/05/09 12:46:41;;;;;;;4.93;2.30;;;;;;;;;;4994633;28;20062;-53
2023/05/09 12:49:19;;;;;;;7.72;1.88;;;;;;;;;;4993140;28;20054;-55
2023/05/09 12:51:54;;;;;;;5.10;2.00;;;;;;;;;;4981491;28;20053;-55
2023/05/09 12:54:24;;;;;;;4.03;2.00;;;;;;;;;;4995982;28;20208;-53
2023/05/09 12:56:58;;;;;;;4.50;1.80;;;;;;;;;;4997136;28;20054;-61
2023/05/09 12:59:27;;;;;;;5.50;2.03;;;;;;;;;;4994954;28;20042;-60
2023/05/09 13:01:56;;;;;;;4.88;1.65;;;;;;;;;;4998532;28;20065;-60
2023/05/09 13:04:30;;;;;;;7.72;1.85;;;;;;;;;;4994252;28;20052;-59
2023/05/09 13:06:58;;;;;;;3.70;1.65;;;;;;;;;;4993189;28;20548;-60
2023/05/09 13:09:32;;;;;;;3.53;1.90;;;;;;;;;;4996846;28;20112;-60
2023/05/09 13:12:00;;;;;;;2.42;1.42;;;;;;;;;;4998085;28;20045;-65
2023/05/09 13:14:33;;;;;;;4.18;1.83;;;;;;;;;;4995978;28;20056;-66
2023/05/09 13:17:00;;;;;;;4.28;2.15;;;;;;;;;;4998837;28;20058;-66
2023/05/09 13:19:27;;;;;;;9.32;2.45;;;;;;;;;;4996988;28;20086;-66
2023/05/09 13:22:01;;;;;;;4.55;1.83;;;;;;;;;;4996760;28;20157;-53
2023/05/09 13:24:28;;;;;;;10.15;1.90;;;;;;;;;;4995226;28;20498;-65
2023/05/09 13:27:03;;;;;;;4.03;1.52;;;;;;;;;;4996986;28;20153;-65
2023/05/09 13:29:30;;;;;;;5.50;1.70;;;;;;;;;;4994378;28;20137;-65
2023/05/09 13:31:57;;;;;;;2.92;1.60;;;;;;;;;;4996108;28;20050;-65
2023/05/09 13:34:31;;;;;;;3.85;1.52;;;;;;;;;;5000206;28;20053;-65
2023/05/09 13:36:58;;;;;;;1.67;1.40;;;;;;;;;;4996668;28;20058;-65
2023/05/09 13:39:32;;;;;;;5.50;1.85;;;;;;;;;;4996317;28;20125;-58
2023/05/09 13:42:00;;;;;;;2.38;1.73;;;;;;;;;;4998385;28;20523;-56
2023/05/09 13:44:27;;;;;;;3.38;1.63;;;;;;;;;;4994397;28;20073;-58
2023/05/09 13:47:01;;;;;;;3.55;1.60;;;;;;;;;;4995243;28;20165;-55
2023/05/09 13:49:28;;;;;;;;;;;;;;;;;;4998791;28;20056;-66
2023/05/09 13:52:02;;;;;;;4.47;1.25;;;;;;;;;;4996912;28;19944;-66
2023/05/09 13:54:36;;;;;;;6.72;1.40;;;;;;;;;;4992074;28;20056;-57
2023/05/09 13:57:10;;;;;;;6.03;1.48;;;;;;;;;;4999671;28;20046;-56
2023/05/09 13:59:40;;;;;;;2.40;1.40;;;;;;;;;;4998861;28;20586;-57
2023/05/09 14:02:07;;;;;;;1.88;1.30;;;;;;;;;;5003730;28;20073;-59
2023/05/09 14:04:41;;;;;;;1.33;1.10;;;;;;;;;;5000786;28;20120;-57
2023/05/09 14:07:10;;;;;;;3.28;1.60;;;;;;;;;;5001168;28;20054;-56
2023/05/09 14:09:46;;;;;;;3.10;1.42;;;;;;;;;;4997942;28;20077;-54
2023/05/09 14:12:16;;;;;;;5.50;1.15;;;;;;;;;;4996602;28;20436;-56
2023/05/09 14:14:43;;;;;;;6.00;1.38;;;;;;;;;;4999325;28;20050;-51
2023/05/09 14:17:17;;;;;;;1.40;1.13;;;;;;;;;;4995734;28;20050;-56
2023/05/09 14:19:44;;;;;;;2.05;1.27;;;;;;;;;;4998271;28;20129;-66
2023/05/09 14:22:18;;;;;;;6.78;1.45;;;;;;;;;;5000481;28;20053;-58
2023/05/09 14:24:46;;;;;;;;;;;;;;;;;;4984775;28;20056;-56
2023/05/09 14:27:13;;;;;;;2.65;1.60;;;;;;;;;;4993603;28;20530;-54
2023/05/09 14:29:48;;;;;;;2.20;1.02;;;;;;;;;;4997778;28;20447;-59
2023/05/09 14:32:15;;;;;;;2.22;1.40;;;;;;;;;;5001010;28;20510;-55
2023/05/09 14:34:42;;;;;;;4.45;1.33;;;;;;;;;;5000509;28;20085;-57
2023/05/09 14:37:16;;;;;;;3.45;1.48;;;;;;;;;;4999241;28;20054;-59
2023/05/09 14:39:48;;;;;;;3.75;1.40;;;;;;;;;;4998948;28;20137;-60
2023/05/09 14:42:22;;;;;;;4.63;1.40;;;;;;;;;;5000133;28;20085;-60
2023/05/09 14:44:49;;;;;;;3.78;1.40;;;;;;;;;;4999977;28;20054;-61
2023/05/09 14:47:16;;;;;;;3.00;1.25;;;;;;;;;;5000642;28;20165;-61
2023/05/09 14:49:51;;;;;;;2.78;1.02;;;;;;;;;;4995914;28;20080;-61
2023/05/09 14:52:18;;;;;;;3.25;1.05;;;;;;;;;;4997653;28;20133;-60
2023/05/09 14:54:52;;;;;;;2.55;1.00;;;;;;;;;;4998511;28;20061;-59
2023/05/09 14:57:19;;;;;;;3.75;1.10;;;;;;;;;;4998840;28;20046;-58
2023/05/09 14:59:46;;;;;;;1.95;1.30;;;;;;;;;;4997509;28;20054;-56
2023/05/09 15:02:27;;;;;;;5.78;1.20;;;;;;;;;;4998000;28;20618;-58
2023/05/09 15:05:01;;;;;;;1.52;1.00;;;;;;;;;;4999146;28;20283;-69
2023/05/09 15:07:34;;;;;;;1.95;1.13;;;;;;;;;;4999920;28;20073;-69
2023/05/09 15:10:04;;;;;;;;;;;;;;;;;;4996913;28;20140;-56
2023/05/09 15:12:32;;;;;;;3.80;1.38;;;;;;;;;;4997452;28;19929;-55
2023/05/09 15:15:11;;;;;;;2.05;1.15;;;;;;;;;;4998134;28;20051;-56